sensor_id;sensor_type;location;lat;lon;timestamp;pressure;altitude;pressure_sealevel;temperature;humidity
63556;BME280;49700;48.072;7.800;2023-07-13T00:00:41;99498.41;;;23.90;nan
63556;BME280;49700;48.072;7.800;2023-07-13T00:03:06;99498.63;;;23.88;nan
63556;BME280;49700;48.072;7.800;2023-07-13T00:05:32;99502.31;;;23.87;nan
63556;BME280;49700;48.072;7.800;2023-07-13T00:07:57;99504.16;;;23.87;nan
63556;BME280;49700;48.072;7.800;2023-07-13T00:10:22;99501.47;;;23.87;nan
63556;BME280;49700;48.072;7.800;2023-07-13T00:12:48;99495.94;;;23.88;nan
63556;BME280;49700;48.072;7.800;2023-07-13T00:15:19;99495.94;;;23.88;nan
63556;BME280;49700;48.072;7.800;2023-07-13T00:17:55;99494.25;;;23.87;nan
63556;BME280;49700;48.072;7.800;2023-07-13T00:20:22;99489.75;;;23.88;nan
63556;BME280;49700;48.072;7.800;2023-07-13T00:22:48;99501.31;;;23.88;nan
63556;BME280;49700;48.072;7.800;2023-07-13T00:25:15;99496.94;;;23.87;nan
63556;BME280;49700;48.072;7.800;2023-07-13T00:27:42;99497.91;;;23.79;nan
63556;BME280;49700;48.072;7.800;2023-07-13T00:30:07;99479.75;;;23.67;nan
63556;BME280;49700;48.072;7.800;2023-07-13T00:32:34;99492.78;;;23.55;nan
63556;BME280;49700;48.072;7.800;2023-07-13T00:35:00;99482.16;;;23.47;nan
63556;BME280;49700;48.072;7.800;2023-07-13T00:37:26;99487.03;;;23.43;nan
63556;BME280;49700;48.072;7.800;2023-07-13T00:39:51;99480.75;;;23.36;nan
63556;BME280;49700;48.072;7.800;2023-07-13T00:42:17;99481.09;;;23.33;nan
63556;BME280;49700;48.072;7.800;2023-07-13T00:45:01;99479.81;;;23.29;nan
63556;BME280;49700;48.072;7.800;2023-07-13T00:47:26;99484.22;;;23.22;nan
63556;BME280;49700;48.072;7.800;2023-07-13T00:49:52;99490.69;;;23.12;nan
63556;BME280;49700;48.072;7.800;2023-07-13T00:52:17;99490.56;;;23.06;nan
63556;BME280;49700;48.072;7.800;2023-07-13T00:54:45;99493.81;;;23.01;nan
63556;BME280;49700;48.072;7.800;2023-07-13T00:57:15;99504.53;;;23.01;nan
63556;BME280;49700;48.072;7.800;2023-07-13T00:59:43;99503.88;;;22.99;nan
63556;BME280;49700;48.072;7.800;2023-07-13T01:02:11;99501.56;;;22.96;nan
63556;BME280;49700;48.072;7.800;2023-07-13T01:04:36;99497.03;;;22.96;nan
63556;BME280;49700;48.072;7.800;2023-07-13T01:07:04;99496.84;;;22.98;nan
63556;BME280;49700;48.072;7.800;2023-07-13T01:09:31;99498.13;;;23.02;nan
63556;BME280;49700;48.072;7.800;2023-07-13T01:11:57;99494.28;;;23.05;nan
63556;BME280;49700;48.072;7.800;2023-07-13T01:14:23;99490.56;;;23.06;nan
63556;BME280;49700;48.072;7.800;2023-07-13T01:16:49;99483.56;;;23.05;nan
63556;BME280;49700;48.072;7.800;2023-07-13T01:22:06;99479.34;;;22.87;nan
63556;BME280;49700;48.072;7.800;2023-07-13T01:24:38;99485.94;;;22.77;nan
63556;BME280;49700;48.072;7.800;2023-07-13T01:27:05;99487.38;;;22.64;nan
63556;BME280;49700;48.072;7.800;2023-07-13T01:29:33;99481.25;;;22.56;nan
63556;BME280;49700;48.072;7.800;2023-07-13T01:31:58;99482.94;;;22.48;nan
63556;BME280;49700;48.072;7.800;2023-07-13T01:34:26;99485.16;;;22.45;nan
63556;BME280;49700;48.072;7.800;2023-07-13T01:36:51;99480.47;;;22.47;nan
63556;BME280;49700;48.072;7.800;2023-07-13T01:39:20;99474.63;;;22.43;nan
63556;BME280;49700;48.072;7.800;2023-07-13T01:41:46;99473.13;;;22.41;nan
63556;BME280;49700;48.072;7.800;2023-07-13T01:44:12;99471.28;;;22.41;nan
63556;BME280;49700;48.072;7.800;2023-07-13T01:46:37;99463.91;;;22.43;nan
63556;BME280;49700;48.072;7.800;2023-07-13T01:49:02;99464.56;;;22.45;nan
63556;BME280;49700;48.072;7.800;2023-07-13T01:51:28;99467.09;;;22.47;nan
63556;BME280;49700;48.072;7.800;2023-07-13T01:53:53;99462.72;;;22.46;nan
63556;BME280;49700;48.072;7.800;2023-07-13T01:56:19;99468.44;;;22.43;nan
63556;BME280;49700;48.072;7.800;2023-07-13T01:58:45;99465.91;;;22.41;nan
63556;BME280;49700;48.072;7.800;2023-07-13T02:01:11;99456.44;;;22.39;nan
63556;BME280;49700;48.072;7.800;2023-07-13T02:03:36;99463.59;;;22.38;nan
63556;BME280;49700;48.072;7.800;2023-07-13T02:06:01;99469.16;;;22.37;nan
63556;BME280;49700;48.072;7.800;2023-07-13T02:08:28;99467.66;;;22.34;nan
63556;BME280;49700;48.072;7.800;2023-07-13T02:10:53;99463.50;;;22.31;nan
63556;BME280;49700;48.072;7.800;2023-07-13T02:13:19;99463.53;;;22.23;nan
63556;BME280;49700;48.072;7.800;2023-07-13T02:15:45;99460.09;;;22.06;nan
63556;BME280;49700;48.072;7.800;2023-07-13T02:18:10;99464.03;;;21.87;nan
63556;BME280;49700;48.072;7.800;2023-07-13T02:20:36;99472.28;;;21.70;nan
63556;BME280;49700;48.072;7.800;2023-07-13T02:23:01;99472.78;;;21.65;nan
63556;BME280;49700;48.072;7.800;2023-07-13T02:25:26;99460.44;;;21.64;nan
63556;BME280;49700;48.072;7.800;2023-07-13T02:27:52;99466.47;;;21.66;nan
63556;BME280;49700;48.072;7.800;2023-07-13T02:30:17;99471.47;;;21.69;nan
63556;BME280;49700;48.072;7.800;2023-07-13T02:32:43;99476.63;;;21.71;nan
63556;BME280;49700;48.072;7.800;2023-07-13T02:35:10;99484.00;;;21.69;nan
63556;BME280;49700;48.072;7.800;2023-07-13T02:37:36;99476.81;;;21.69;nan
63556;BME280;49700;48.072;7.800;2023-07-13T02:40:02;99476.63;;;21.71;nan
63556;BME280;49700;48.072;7.800;2023-07-13T02:42:34;99469.47;;;21.71;nan
63556;BME280;49700;48.072;7.800;2023-07-13T02:45:00;99476.25;;;21.74;nan
63556;BME280;49700;48.072;7.800;2023-07-13T02:47:25;99476.97;;;21.68;nan
63556;BME280;49700;48.072;7.800;2023-07-13T02:49:52;99479.16;;;21.64;nan
63556;BME280;49700;48.072;7.800;2023-07-13T02:52:17;99481.50;;;21.59;nan
63556;BME280;49700;48.072;7.800;2023-07-13T02:54:43;99472.69;;;21.50;nan
63556;BME280;49700;48.072;7.800;2023-07-13T02:57:09;99477.22;;;21.50;nan
63556;BME280;49700;48.072;7.800;2023-07-13T02:59:35;99478.06;;;21.42;nan
63556;BME280;49700;48.072;7.800;2023-07-13T03:02:02;99463.84;;;21.33;nan
63556;BME280;49700;48.072;7.800;2023-07-13T03:04:28;99457.31;;;21.28;nan
63556;BME280;49700;48.072;7.800;2023-07-13T03:06:54;99463.84;;;21.25;nan
63556;BME280;49700;48.072;7.800;2023-07-13T03:09:24;99461.03;;;21.18;nan
63556;BME280;49700;48.072;7.800;2023-07-13T03:11:53;99471.72;;;21.10;nan
63556;BME280;49700;48.072;7.800;2023-07-13T03:14:25;99480.22;;;21.06;nan
63556;BME280;49700;48.072;7.800;2023-07-13T03:16:51;99480.56;;;21.03;nan
63556;BME280;49700;48.072;7.800;2023-07-13T03:19:18;99484.25;;;21.02;nan
63556;BME280;49700;48.072;7.800;2023-07-13T03:21:48;99482.75;;;20.99;nan
63556;BME280;49700;48.072;7.800;2023-07-13T03:24:13;99481.25;;;20.96;nan
63556;BME280;49700;48.072;7.800;2023-07-13T03:26:39;99487.59;;;20.95;nan
63556;BME280;49700;48.072;7.800;2023-07-13T03:29:05;99482.91;;;20.97;nan
63556;BME280;49700;48.072;7.800;2023-07-13T03:31:34;99487.28;;;20.98;nan
63556;BME280;49700;48.072;7.800;2023-07-13T03:33:59;99497.09;;;20.98;nan
63556;BME280;49700;48.072;7.800;2023-07-13T03:36:28;99499.47;;;21.01;nan
63556;BME280;49700;48.072;7.800;2023-07-13T03:38:59;99494.59;;;21.05;nan
63556;BME280;49700;48.072;7.800;2023-07-13T03:41:44;99490.56;;;21.09;nan
63556;BME280;49700;48.072;7.800;2023-07-13T03:44:11;99496.59;;;21.11;nan
63556;BME280;49700;48.072;7.800;2023-07-13T03:46:36;99493.78;;;21.12;nan
63556;BME280;49700;48.072;7.800;2023-07-13T03:49:04;99490.28;;;21.12;nan
63556;BME280;49700;48.072;7.800;2023-07-13T03:51:30;99497.28;;;21.13;nan
63556;BME280;49700;48.072;7.800;2023-07-13T03:53:56;99494.59;;;21.13;nan
63556;BME280;49700;48.072;7.800;2023-07-13T03:56:21;99495.44;;;21.13;nan
63556;BME280;49700;48.072;7.800;2023-07-13T03:58:49;99496.09;;;21.15;nan
63556;BME280;49700;48.072;7.800;2023-07-13T04:01:20;99502.44;;;21.14;nan
63556;BME280;49700;48.072;7.800;2023-07-13T04:03:46;99507.13;;;21.12;nan
63556;BME280;49700;48.072;7.800;2023-07-13T04:06:16;99511.63;;;21.12;nan
63556;BME280;49700;48.072;7.800;2023-07-13T04:08:47;99514.47;;;21.10;nan
63556;BME280;49700;48.072;7.800;2023-07-13T04:11:14;99518.31;;;21.08;nan
63556;BME280;49700;48.072;7.800;2023-07-13T04:13:39;99522.97;;;21.06;nan
63556;BME280;49700;48.072;7.800;2023-07-13T04:16:05;99518.44;;;21.06;nan
63556;BME280;49700;48.072;7.800;2023-07-13T04:18:30;99517.97;;;21.03;nan
63556;BME280;49700;48.072;7.800;2023-07-13T04:20:55;99516.47;;;21.00;nan
63556;BME280;49700;48.072;7.800;2023-07-13T04:23:21;99519.97;;;21.00;nan
63556;BME280;49700;48.072;7.800;2023-07-13T04:25:47;99522.31;;;21.04;nan
63556;BME280;49700;48.072;7.800;2023-07-13T04:28:15;99530.81;;;21.07;nan
63556;BME280;49700;48.072;7.800;2023-07-13T04:30:41;99538.16;;;21.13;nan
63556;BME280;49700;48.072;7.800;2023-07-13T04:33:06;99535.66;;;21.20;nan
63556;BME280;49700;48.072;7.800;2023-07-13T04:35:34;99530.63;;;21.25;nan
63556;BME280;49700;48.072;7.800;2023-07-13T04:38:00;99536.50;;;21.29;nan
63556;BME280;49700;48.072;7.800;2023-07-13T04:40:27;99544.00;;;21.33;nan
63556;BME280;49700;48.072;7.800;2023-07-13T04:42:53;99543.34;;;21.39;nan
63556;BME280;49700;48.072;7.800;2023-07-13T04:45:18;99550.69;;;21.46;nan
63556;BME280;49700;48.072;7.800;2023-07-13T04:47:44;99545.19;;;21.47;nan
63556;BME280;49700;48.072;7.800;2023-07-13T04:50:12;99545.69;;;21.51;nan
63556;BME280;49700;48.072;7.800;2023-07-13T04:52:38;99545.81;;;21.57;nan
63556;BME280;49700;48.072;7.800;2023-07-13T04:55:03;99541.66;;;21.63;nan
63556;BME280;49700;48.072;7.800;2023-07-13T04:57:29;99546.63;;;21.74;nan
63556;BME280;49700;48.072;7.800;2023-07-13T04:59:55;99553.25;;;21.95;nan
63556;BME280;49700;48.072;7.800;2023-07-13T05:02:20;99544.31;;;22.19;nan
63556;BME280;49700;48.072;7.800;2023-07-13T05:04:47;99552.06;;;22.45;nan
63556;BME280;49700;48.072;7.800;2023-07-13T05:07:13;99551.50;;;22.81;nan
63556;BME280;49700;48.072;7.800;2023-07-13T05:09:38;99557.59;;;22.97;nan
63556;BME280;49700;48.072;7.800;2023-07-13T05:12:06;99550.75;;;23.18;nan
63556;BME280;49700;48.072;7.800;2023-07-13T05:14:32;99557.31;;;23.53;nan
63556;BME280;49700;48.072;7.800;2023-07-13T05:16:57;99563.75;;;23.97;nan
63556;BME280;49700;48.072;7.800;2023-07-13T05:19:23;99567.44;;;24.25;nan
63556;BME280;49700;48.072;7.800;2023-07-13T05:21:48;99573.16;;;24.37;nan
63556;BME280;49700;48.072;7.800;2023-07-13T05:24:14;99580.81;;;24.40;nan
63556;BME280;49700;48.072;7.800;2023-07-13T05:26:39;99575.09;;;24.58;nan
63556;BME280;49700;48.072;7.800;2023-07-13T05:29:04;99573.75;;;24.69;nan
63556;BME280;49700;48.072;7.800;2023-07-13T05:31:30;99575.31;;;25.00;nan
63556;BME280;49700;48.072;7.800;2023-07-13T05:33:55;99577.56;;;25.39;nan
63556;BME280;49700;48.072;7.800;2023-07-13T05:36:21;99575.50;;;25.69;nan
63556;BME280;49700;48.072;7.800;2023-07-13T05:38:46;99582.56;;;25.98;nan
63556;BME280;49700;48.072;7.800;2023-07-13T05:41:11;99578.38;;;26.31;nan
63556;BME280;49700;48.072;7.800;2023-07-13T05:43:37;99575.00;;;26.63;nan
63556;BME280;49700;48.072;7.800;2023-07-13T05:46:02;99581.69;;;26.94;nan
63556;BME280;49700;48.072;7.800;2023-07-13T05:48:27;99580.31;;;27.18;nan
63556;BME280;49700;48.072;7.800;2023-07-13T05:50:53;99582.81;;;27.40;nan
63556;BME280;49700;48.072;7.800;2023-07-13T05:53:18;99586.13;;;27.62;nan
63556;BME280;49700;48.072;7.800;2023-07-13T05:55:45;99584.88;;;27.91;nan
63556;BME280;49700;48.072;7.800;2023-07-13T05:58:17;99595.16;;;28.14;nan
63556;BME280;49700;48.072;7.800;2023-07-13T06:00:42;99595.13;;;28.27;nan
63556;BME280;49700;48.072;7.800;2023-07-13T06:03:08;99597.75;;;28.54;nan
63556;BME280;49700;48.072;7.800;2023-07-13T06:05:35;99590.31;;;28.87;nan
63556;BME280;49700;48.072;7.800;2023-07-13T06:08:08;99587.31;;;29.09;nan
63556;BME280;49700;48.072;7.800;2023-07-13T06:10:35;99582.72;;;29.34;nan
63556;BME280;49700;48.072;7.800;2023-07-13T06:13:01;99577.69;;;29.63;nan
63556;BME280;49700;48.072;7.800;2023-07-13T06:15:27;99585.44;;;29.85;nan
63556;BME280;49700;48.072;7.800;2023-07-13T06:17:52;99589.31;;;29.89;nan
63556;BME280;49700;48.072;7.800;2023-07-13T06:20:18;99592.97;;;30.01;nan
63556;BME280;49700;48.072;7.800;2023-07-13T06:22:44;99604.00;;;30.25;nan
63556;BME280;49700;48.072;7.800;2023-07-13T06:25:10;99601.41;;;30.48;nan
63556;BME280;49700;48.072;7.800;2023-07-13T06:27:36;99603.00;;;30.68;nan
63556;BME280;49700;48.072;7.800;2023-07-13T06:30:01;99592.91;;;30.93;nan
63556;BME280;49700;48.072;7.800;2023-07-13T06:32:27;99599.78;;;31.07;nan
63556;BME280;49700;48.072;7.800;2023-07-13T06:34:52;99596.16;;;31.14;nan
63556;BME280;49700;48.072;7.800;2023-07-13T06:37:18;99598.97;;;31.19;nan
63556;BME280;49700;48.072;7.800;2023-07-13T06:39:43;99593.44;;;31.14;nan
63556;BME280;49700;48.072;7.800;2023-07-13T06:42:09;99599.91;;;31.13;nan
63556;BME280;49700;48.072;7.800;2023-07-13T06:44:35;99600.16;;;31.11;nan
63556;BME280;49700;48.072;7.800;2023-07-13T06:47:00;99597.13;;;31.31;nan
63556;BME280;49700;48.072;7.800;2023-07-13T06:49:25;99595.84;;;31.45;nan
63556;BME280;49700;48.072;7.800;2023-07-13T06:51:51;99597.06;;;31.49;nan
63556;BME280;49700;48.072;7.800;2023-07-13T06:54:16;99602.75;;;31.60;nan
63556;BME280;49700;48.072;7.800;2023-07-13T06:56:42;99607.91;;;31.73;nan
63556;BME280;49700;48.072;7.800;2023-07-13T06:59:07;99602.97;;;31.93;nan
63556;BME280;49700;48.072;7.800;2023-07-13T07:01:33;99602.38;;;32.15;nan
63556;BME280;49700;48.072;7.800;2023-07-13T07:03:58;99608.91;;;32.43;nan
63556;BME280;49700;48.072;7.800;2023-07-13T07:06:24;99602.78;;;32.47;nan
63556;BME280;49700;48.072;7.800;2023-07-13T07:08:50;99603.63;;;32.48;nan
63556;BME280;49700;48.072;7.800;2023-07-13T07:11:22;99608.56;;;32.39;nan
63556;BME280;49700;48.072;7.800;2023-07-13T07:13:49;99606.22;;;32.31;nan
63556;BME280;49700;48.072;7.800;2023-07-13T07:16:15;99607.53;;;32.28;nan
63556;BME280;49700;48.072;7.800;2023-07-13T07:18:40;99610.00;;;32.42;nan
63556;BME280;49700;48.072;7.800;2023-07-13T07:21:06;99614.59;;;32.53;nan
63556;BME280;49700;48.072;7.800;2023-07-13T07:23:32;99617.88;;;32.43;nan
63556;BME280;49700;48.072;7.800;2023-07-13T07:25:57;99619.19;;;32.40;nan
63556;BME280;49700;48.072;7.800;2023-07-13T07:28:22;99625.38;;;32.48;nan
63556;BME280;49700;48.072;7.800;2023-07-13T07:30:49;99620.97;;;32.58;nan
63556;BME280;49700;48.072;7.800;2023-07-13T07:33:17;99621.50;;;32.72;nan
63556;BME280;49700;48.072;7.800;2023-07-13T07:35:43;99624.63;;;32.93;nan
63556;BME280;49700;48.072;7.800;2023-07-13T07:38:08;99625.84;;;33.14;nan
63556;BME280;49700;48.072;7.800;2023-07-13T07:40:38;99620.09;;;33.27;nan
63556;BME280;49700;48.072;7.800;2023-07-13T07:43:04;99625.09;;;33.18;nan
63556;BME280;49700;48.072;7.800;2023-07-13T07:45:30;99619.81;;;33.12;nan
63556;BME280;49700;48.072;7.800;2023-07-13T07:47:55;99621.41;;;33.24;nan
63556;BME280;49700;48.072;7.800;2023-07-13T07:50:25;99622.81;;;33.44;nan
63556;BME280;49700;48.072;7.800;2023-07-13T07:52:50;99623.13;;;33.47;nan
63556;BME280;49700;48.072;7.800;2023-07-13T07:55:16;99619.31;;;33.15;nan
63556;BME280;49700;48.072;7.800;2023-07-13T07:57:42;99627.41;;;32.69;nan
63556;BME280;49700;48.072;7.800;2023-07-13T08:00:07;99623.09;;;32.56;nan
63556;BME280;49700;48.072;7.800;2023-07-13T08:02:43;99626.44;;;32.47;nan
63556;BME280;49700;48.072;7.800;2023-07-13T08:05:09;99619.44;;;32.39;nan
63556;BME280;49700;48.072;7.800;2023-07-13T08:07:37;99625.97;;;32.38;nan
63556;BME280;49700;48.072;7.800;2023-07-13T08:10:07;99629.63;;;32.44;nan
63556;BME280;49700;48.072;7.800;2023-07-13T08:12:40;99629.63;;;32.32;nan
63556;BME280;49700;48.072;7.800;2023-07-13T08:15:06;99628.56;;;32.33;nan
63556;BME280;49700;48.072;7.800;2023-07-13T08:17:34;99619.84;;;32.19;nan
63556;BME280;49700;48.072;7.800;2023-07-13T08:20:00;99622.00;;;31.93;nan
63556;BME280;49700;48.072;7.800;2023-07-13T08:22:26;99626.34;;;31.94;nan
63556;BME280;49700;48.072;7.800;2023-07-13T08:24:52;99630.59;;;31.90;nan
63556;BME280;49700;48.072;7.800;2023-07-13T08:27:25;99631.53;;;31.72;nan
63556;BME280;49700;48.072;7.800;2023-07-13T08:29:52;99627.63;;;31.57;nan
63556;BME280;49700;48.072;7.800;2023-07-13T08:32:18;99626.19;;;31.42;nan
63556;BME280;49700;48.072;7.800;2023-07-13T08:34:45;99629.09;;;31.29;nan
63556;BME280;49700;48.072;7.800;2023-07-13T08:37:11;99635.66;;;31.09;nan
63556;BME280;49700;48.072;7.800;2023-07-13T08:39:36;99630.19;;;30.98;nan
63556;BME280;49700;48.072;7.800;2023-07-13T08:42:14;99628.47;;;30.85;nan
63556;BME280;49700;48.072;7.800;2023-07-13T08:45:21;99625.69;;;30.73;nan
63556;BME280;49700;48.072;7.800;2023-07-13T08:47:57;99620.69;;;30.40;nan
63556;BME280;49700;48.072;7.800;2023-07-13T08:50:33;99624.56;;;30.07;nan
63556;BME280;49700;48.072;7.800;2023-07-13T08:53:01;99624.34;;;30.09;nan
63556;BME280;49700;48.072;7.800;2023-07-13T08:55:30;99617.81;;;30.16;nan
63556;BME280;49700;48.072;7.800;2023-07-13T08:58:10;99627.47;;;30.31;nan
63556;BME280;49700;48.072;7.800;2023-07-13T09:00:46;99621.06;;;30.43;nan
63556;BME280;49700;48.072;7.800;2023-07-13T09:03:22;99621.72;;;30.57;nan
63556;BME280;49700;48.072;7.800;2023-07-13T09:05:56;99628.47;;;30.85;nan
63556;BME280;49700;48.072;7.800;2023-07-13T09:08:33;99620.06;;;31.05;nan
63556;BME280;49700;48.072;7.800;2023-07-13T09:11:20;99627.69;;;30.96;nan
63556;BME280;49700;48.072;7.800;2023-07-13T09:14:50;99634.06;;;30.72;nan
63556;BME280;49700;48.072;7.800;2023-07-13T09:16:56;99627.72;;;30.59;nan
63556;BME280;49700;48.072;7.800;2023-07-13T09:19:30;99621.16;;;30.67;nan
63556;BME280;49700;48.072;7.800;2023-07-13T09:21:59;99615.69;;;30.74;nan
63556;BME280;49700;48.072;7.800;2023-07-13T09:27:08;99623.66;;;30.87;nan
63556;BME280;49700;48.072;7.800;2023-07-13T09:29:36;99616.78;;;30.54;nan
63556;BME280;49700;48.072;7.800;2023-07-13T09:32:07;99617.81;;;30.35;nan
63556;BME280;49700;48.072;7.800;2023-07-13T09:34:35;99614.94;;;30.30;nan
63556;BME280;49700;48.072;7.800;2023-07-13T09:37:00;99620.06;;;30.38;nan
63556;BME280;49700;48.072;7.800;2023-07-13T09:39:36;99618.47;;;30.49;nan
63556;BME280;49700;48.072;7.800;2023-07-13T09:42:07;99612.38;;;30.53;nan
63556;BME280;49700;48.072;7.800;2023-07-13T09:44:50;99618.09;;;30.63;nan
63556;BME280;49700;48.072;7.800;2023-07-13T09:47:22;99626.38;;;30.69;nan
63556;BME280;49700;48.072;7.800;2023-07-13T09:50:12;99614.28;;;30.53;nan
63556;BME280;49700;48.072;7.800;2023-07-13T09:52:46;99618.56;;;30.42;nan
63556;BME280;49700;48.072;7.800;2023-07-13T09:55:36;99605.69;;;30.37;nan
63556;BME280;49700;48.072;7.800;2023-07-13T09:58:13;99615.09;;;30.53;nan
63556;BME280;49700;48.072;7.800;2023-07-13T10:00:40;99615.53;;;30.69;nan
63556;BME280;49700;48.072;7.800;2023-07-13T10:03:18;99605.97;;;30.84;nan
63556;BME280;49700;48.072;7.800;2023-07-13T10:05:47;99610.00;;;30.75;nan
63556;BME280;49700;48.072;7.800;2023-07-13T10:08:24;99608.75;;;30.59;nan
63556;BME280;49700;48.072;7.800;2023-07-13T10:11:01;99614.41;;;30.58;nan
63556;BME280;49700;48.072;7.800;2023-07-13T10:13:36;99612.75;;;30.57;nan
63556;BME280;49700;48.072;7.800;2023-07-13T10:16:02;99620.81;;;30.63;nan
63556;BME280;49700;48.072;7.800;2023-07-13T10:18:37;99618.69;;;30.84;nan
63556;BME280;49700;48.072;7.800;2023-07-13T10:21:12;99625.00;;;30.78;nan
63556;BME280;49700;48.072;7.800;2023-07-13T10:23:39;99625.78;;;30.67;nan
63556;BME280;49700;48.072;7.800;2023-07-13T10:26:07;99614.38;;;30.46;nan
63556;BME280;49700;48.072;7.800;2023-07-13T10:28:38;99614.50;;;30.14;nan
63556;BME280;49700;48.072;7.800;2023-07-13T10:31:10;99617.16;;;29.77;nan
63556;BME280;49700;48.072;7.800;2023-07-13T10:33:37;99615.94;;;29.73;nan
63556;BME280;49700;48.072;7.800;2023-07-13T10:36:14;99617.94;;;29.85;nan
63556;BME280;49700;48.072;7.800;2023-07-13T10:38:43;99614.50;;;30.14;nan
63556;BME280;49700;48.072;7.800;2023-07-13T10:41:15;99611.19;;;30.49;nan
63556;BME280;49700;48.072;7.800;2023-07-13T10:43:44;99625.09;;;30.71;nan
63556;BME280;49700;48.072;7.800;2023-07-13T10:46:13;99618.97;;;30.76;nan
63556;BME280;49700;48.072;7.800;2023-07-13T10:48:40;99618.75;;;30.77;nan
63556;BME280;49700;48.072;7.800;2023-07-13T10:51:07;99622.69;;;30.81;nan
63556;BME280;49700;48.072;7.800;2023-07-13T10:53:35;99626.28;;;30.75;nan
63556;BME280;49700;48.072;7.800;2023-07-13T10:56:03;99623.22;;;30.72;nan
63556;BME280;49700;48.072;7.800;2023-07-13T10:58:39;99619.59;;;30.59;nan
63556;BME280;49700;48.072;7.800;2023-07-13T11:01:15;99616.13;;;30.71;nan
63556;BME280;49700;48.072;7.800;2023-07-13T11:03:56;99609.25;;;30.86;nan
63556;BME280;49700;48.072;7.800;2023-07-13T11:09:00;99612.63;;;31.00;nan
63556;BME280;49700;48.072;7.800;2023-07-13T11:11:36;99607.63;;;30.97;nan
63556;BME280;49700;48.072;7.800;2023-07-13T11:14:03;99609.84;;;30.89;nan
63556;BME280;49700;48.072;7.800;2023-07-13T11:16:44;99608.97;;;30.76;nan
63556;BME280;49700;48.072;7.800;2023-07-13T11:27:33;99590.41;;;30.92;nan
63556;BME280;49700;48.072;7.800;2023-07-13T11:30:24;99594.31;;;30.96;nan
63556;BME280;49700;48.072;7.800;2023-07-13T11:35:45;99595.47;;;30.88;nan
63556;BME280;49700;48.072;7.800;2023-07-13T11:38:19;99594.94;;;30.98;nan
63556;BME280;49700;48.072;7.800;2023-07-13T11:40:47;99584.09;;;31.09;nan
63556;BME280;49700;48.072;7.800;2023-07-13T11:43:15;99589.63;;;31.03;nan
63556;BME280;49700;48.072;7.800;2023-07-13T11:45:42;99593.88;;;31.11;nan
63556;BME280;49700;48.072;7.800;2023-07-13T11:48:25;99593.19;;;31.15;nan
63556;BME280;49700;48.072;7.800;2023-07-13T11:51:03;99599.06;;;31.00;nan
63556;BME280;49700;48.072;7.800;2023-07-13T11:53:44;99592.63;;;30.83;nan
63556;BME280;49700;48.072;7.800;2023-07-13T11:56:11;99597.00;;;30.84;nan
63556;BME280;49700;48.072;7.800;2023-07-13T11:58:36;99585.91;;;30.85;nan
63556;BME280;49700;48.072;7.800;2023-07-13T12:01:02;99588.66;;;30.97;nan
63556;BME280;49700;48.072;7.800;2023-07-13T12:03:33;99595.41;;;31.06;nan
63556;BME280;49700;48.072;7.800;2023-07-13T12:06:02;99599.06;;;31.00;nan
63556;BME280;49700;48.072;7.800;2023-07-13T12:08:31;99598.78;;;30.90;nan
63556;BME280;49700;48.072;7.800;2023-07-13T12:10:59;99601.81;;;30.82;nan
63556;BME280;49700;48.072;7.800;2023-07-13T12:13:28;99601.84;;;30.63;nan
63556;BME280;49700;48.072;7.800;2023-07-13T12:16:00;99597.50;;;30.26;nan
63556;BME280;49700;48.072;7.800;2023-07-13T12:18:30;99599.28;;;30.13;nan
63556;BME280;49700;48.072;7.800;2023-07-13T12:20:58;99594.16;;;30.05;nan
63556;BME280;49700;48.072;7.800;2023-07-13T12:25:53;99591.72;;;29.78;nan
63556;BME280;49700;48.072;7.800;2023-07-13T12:29:06;99589.38;;;29.64;nan
63556;BME280;49700;48.072;7.800;2023-07-13T12:31:41;99588.53;;;29.63;nan
63556;BME280;49700;48.072;7.800;2023-07-13T12:34:13;99592.00;;;29.70;nan
63556;BME280;49700;48.072;7.800;2023-07-13T12:36:46;99590.44;;;29.81;nan
63556;BME280;49700;48.072;7.800;2023-07-13T12:39:25;99592.28;;;29.87;nan
63556;BME280;49700;48.072;7.800;2023-07-13T12:41:53;99590.41;;;29.88;nan
63556;BME280;49700;48.072;7.800;2023-07-13T12:46:57;99587.75;;;29.99;nan
63556;BME280;49700;48.072;7.800;2023-07-13T12:49:28;99591.22;;;30.07;nan
63556;BME280;49700;48.072;7.800;2023-07-13T12:52:09;99598.09;;;30.09;nan
63556;BME280;49700;48.072;7.800;2023-07-13T12:54:39;99591.31;;;30.18;nan
63556;BME280;49700;48.072;7.800;2023-07-13T12:57:07;99589.06;;;30.34;nan
63556;BME280;49700;48.072;7.800;2023-07-13T12:59:34;99588.97;;;30.40;nan
63556;BME280;49700;48.072;7.800;2023-07-13T13:02:02;99585.59;;;30.45;nan
63556;BME280;49700;48.072;7.800;2023-07-13T13:04:28;99580.16;;;30.45;nan
63556;BME280;49700;48.072;7.800;2023-07-13T13:07:05;99576.84;;;30.43;nan
63556;BME280;49700;48.072;7.800;2023-07-13T13:09:34;99581.09;;;30.39;nan
63556;BME280;49700;48.072;7.800;2023-07-13T13:11:59;99574.16;;;30.43;nan
63556;BME280;49700;48.072;7.800;2023-07-13T13:14:25;99578.34;;;30.57;nan
63556;BME280;49700;48.072;7.800;2023-07-13T13:16:52;99571.69;;;30.72;nan
63556;BME280;49700;48.072;7.800;2023-07-13T13:19:24;99568.97;;;30.72;nan
63556;BME280;49700;48.072;7.800;2023-07-13T13:21:50;99576.44;;;30.76;nan
63556;BME280;49700;48.072;7.800;2023-07-13T13:24:20;99577.56;;;30.87;nan
63556;BME280;49700;48.072;7.800;2023-07-13T13:26:47;99575.34;;;31.07;nan
63556;BME280;49700;48.072;7.800;2023-07-13T13:29:19;99573.50;;;31.20;nan
63556;BME280;49700;48.072;7.800;2023-07-13T13:31:45;99572.69;;;31.19;nan
63556;BME280;49700;48.072;7.800;2023-07-13T13:34:13;99568.69;;;31.22;nan
63556;BME280;49700;48.072;7.800;2023-07-13T13:36:40;99584.97;;;31.22;nan
63556;BME280;49700;48.072;7.800;2023-07-13T13:41:48;99574.72;;;30.94;nan
63556;BME280;49700;48.072;7.800;2023-07-13T13:44:16;99583.28;;;30.79;nan
63556;BME280;49700;48.072;7.800;2023-07-13T13:46:44;99581.47;;;30.73;nan
63556;BME280;49700;48.072;7.800;2023-07-13T13:51:51;99589.09;;;30.64;nan
63556;BME280;49700;48.072;7.800;2023-07-13T13:54:19;99584.25;;;30.54;nan
63556;BME280;49700;48.072;7.800;2023-07-13T13:56:47;99594.63;;;30.39;nan
63556;BME280;49700;48.072;7.800;2023-07-13T13:59:14;99586.69;;;30.19;nan